Time;durP1;ratioP1;P1;durP2;ratioP2;P2;SDS_P1;SDS_P2;PMS_P1;PMS_P2;Temp;Humidity;BMP_temperature;BMP_pressure;BME280_temperature;BME280_humidity;BME280_pressure;Samples;Min_cycle;Max_cycle;Signal;HPM_P1;HPM_P2
2021/07/05 00:01:09;;;;;;;12.77;3.53;;;43.40;23.10;;;;;;5087050;28;20194;-62
2021/07/05 00:03:37;;;;;;;15.05;2.78;;;43.40;23.80;;;;;;5085868;28;20066;-60
2021/07/05 00:06:04;;;;;;;13.77;3.45;;;43.40;23.40;;;;;;5080883;28;20091;-59
2021/07/05 00:08:31;;;;;;;11.57;2.75;;;43.30;23.30;;;;;;5082400;28;20071;-60
2021/07/05 00:10:58;;;;;;;15.40;3.05;;;43.10;22.70;;;;;;5083548;28;20164;-60
2021/07/05 00:13:24;;;;;;;8.35;3.30;;;43.10;23.30;;;;;;5078451;28;20097;-61
2021/07/05 00:15:51;;;;;;;11.10;3.53;;;43.00;23.40;;;;;;5082004;28;20123;-59
2021/07/05 00:18:18;;;;;;;6.93;2.50;;;43.00;23.20;;;;;;5083423;28;20094;-61
2021/07/05 00:20:45;;;;;;;8.82;3.10;;;42.90;23.70;;;;;;5077449;28;20071;-61
2021/07/05 00:23:13;;;;;;;8.25;2.83;;;42.80;23.40;;;;;;5080756;28;20079;-60
2021/07/05 00:25:40;;;;;;;11.32;3.08;;;42.80;23.70;;;;;;5081789;28;20060;-61
2021/07/05 00:28:07;;;;;;;12.20;3.03;;;42.80;23.90;;;;;;5079392;28;20070;-63
2021/07/05 00:30:35;;;;;;;16.27;3.25;;;42.80;23.60;;;;;;5080880;28;20080;-60
2021/07/05 00:33:02;;;;;;;13.27;2.72;;;42.60;23.40;;;;;;5084274;28;20367;-61
2021/07/05 00:35:30;;;;;;;8.05;2.38;;;43.50;56.40;;;;;;5083198;28;20096;-60
2021/07/05 00:37:57;;;;;;;14.05;2.80;;;42.60;27.00;;;;;;5080103;28;20032;-60
2021/07/05 00:40:26;;;;;;;6.13;2.60;;;42.60;30.00;;;;;;5084377;28;20028;-59
2021/07/05 00:42:55;;;;;;;16.95;2.95;;;42.60;24.60;;;;;;5089324;28;20388;-60
2021/07/05 00:45:23;;;;;;;12.27;3.03;;;42.50;24.70;;;;;;5082583;28;20024;-57
2021/07/05 00:47:49;;;;;;;7.97;2.25;;;42.80;52.30;;;;;;5080961;28;20476;-60
2021/07/05 00:50:18;;;;;;;13.80;3.10;;;42.40;33.90;;;;;;5083460;28;20024;-60
2021/07/05 00:52:50;;;;;;;9.85;3.50;;;42.20;45.70;;;;;;5087223;28;20096;-60
2021/07/05 00:55:16;;;;;;;13.43;3.95;;;42.20;25.80;;;;;;5084337;28;20089;-60
2021/07/05 00:57:43;;;;;;;15.30;3.88;;;42.30;26.60;;;;;;5086295;28;20073;-59
2021/07/05 01:00:13;;;;;;;19.00;4.40;;;42.20;27.00;;;;;;5081666;28;20077;-60
2021/07/05 01:02:40;;;;;;;13.23;3.53;;;41.70;65.40;;;;;;5078864;28;20070;-61
2021/07/05 01:05:07;;;;;;;12.43;3.40;;;42.00;38.50;;;;;;5081418;28;20030;-60
2021/07/05 01:07:34;;;;;;;13.60;3.67;;;42.00;27.10;;;;;;5083268;28;20130;-58
2021/07/05 01:10:01;;;;;;;16.02;3.65;;;41.70;27.70;;;;;;5082821;28;20076;-61
2021/07/05 01:12:27;;;;;;;14.88;3.35;;;41.70;28.20;;;;;;5084230;28;20146;-61
2021/07/05 01:14:54;;;;;;;18.95;3.83;;;41.70;29.00;;;;;;5084984;28;20069;-61
2021/07/05 01:17:20;;;;;;;11.68;3.47;;;41.60;28.90;;;;;;5085616;28;20160;-60
2021/07/05 01:19:49;;;;;;;18.48;3.38;;;41.50;29.50;;;;;;5084574;28;20069;-59
2021/07/05 01:22:17;;;;;;;11.85;3.70;;;41.40;29.80;;;;;;5083481;28;20555;-60
2021/07/05 01:24:46;;;;;;;12.65;3.08;;;41.10;30.10;;;;;;5083970;28;20138;-59
2021/07/05 01:27:13;;;;;;;13.57;3.20;;;40.90;30.40;;;;;;5080268;28;20073;-61
2021/07/05 01:29:40;;;;;;;17.88;3.17;;;40.80;30.70;;;;;;5085450;28;20122;-58
2021/07/05 01:32:08;;;;;;;11.27;2.85;;;40.70;31.00;;;;;;5086283;28;20109;-63
2021/07/05 01:34:35;;;;;;;13.95;3.08;;;40.70;31.10;;;;;;5085267;28;20077;-57
2021/07/05 01:37:02;;;;;;;11.52;3.17;;;40.50;30.90;;;;;;5084778;28;20419;-61
2021/07/05 01:39:29;;;;;;;13.13;2.70;;;40.50;31.40;;;;;;5087678;28;20065;-60
2021/07/05 01:41:56;;;;;;;15.32;2.70;;;40.40;31.70;;;;;;5087437;28;20112;-62
2021/07/05 01:44:22;;;;;;;12.57;3.25;;;40.40;31.40;;;;;;5083176;28;20073;-63
2021/07/05 01:46:49;;;;;;;26.83;3.70;;;40.20;32.10;;;;;;5088556;28;20441;-61
2021/07/05 01:49:15;;;;;;;17.80;3.22;;;40.20;32.40;;;;;;5083639;28;20100;-62
2021/07/05 01:51:42;;;;;;;15.38;3.30;;;40.20;32.30;;;;;;5089107;28;20487;-61
2021/07/05 01:54:12;;;;;;;20.38;3.65;;;40.00;32.60;;;;;;5088201;28;20081;-58
2021/07/05 01:56:38;;;;;;;12.23;3.08;;;39.90;33.50;;;;;;5088223;28;20080;-59
2021/07/05 01:59:05;;;;;;;21.33;3.33;;;39.70;33.60;;;;;;5085787;28;20100;-59
2021/07/05 02:01:31;;;;;;;19.58;3.58;;;39.60;34.40;;;;;;5083302;28;20667;-63
2021/07/05 02:03:58;;;;;;;19.27;2.70;;;39.40;34.60;;;;;;5081414;28;20438;-62
2021/07/05 02:06:25;;;;;;;24.02;3.00;;;39.40;34.60;;;;;;5086921;28;20073;-63
2021/07/05 02:08:52;;;;;;;14.95;3.03;;;39.20;34.70;;;;;;5085074;28;20069;-60
2021/07/05 02:11:19;;;;;;;20.20;3.28;;;39.20;35.40;;;;;;5087843;28;20068;-59
2021/07/05 02:13:45;;;;;;;14.57;2.53;;;39.10;35.60;;;;;;5085537;28;20065;-61
2021/07/05 02:16:12;;;;;;;13.10;2.85;;;39.00;35.80;;;;;;5081393;28;20083;-58
2021/07/05 02:18:38;;;;;;;16.38;3.03;;;38.80;35.80;;;;;;5082255;28;20099;-59
2021/07/05 02:21:07;;;;;;;16.90;3.25;;;38.70;36.00;;;;;;5082374;28;20077;-59
2021/07/05 02:23:34;;;;;;;18.02;2.78;;;38.60;35.90;;;;;;5081552;28;20073;-60
2021/07/05 02:26:02;;;;;;;26.75;3.67;;;38.50;36.40;;;;;;5088321;28;20449;-59
2021/07/05 02:28:31;;;;;;;18.08;3.20;;;38.40;36.30;;;;;;5083628;28;20146;-59
2021/07/05 02:30:58;;;;;;;19.25;3.53;;;38.30;36.60;;;;;;5083387;28;20070;-59
2021/07/05 02:33:27;;;;;;;13.70;3.30;;;38.30;36.50;;;;;;5082079;28;20118;-60
2021/07/05 02:35:55;;;;;;;17.23;3.80;;;38.10;36.80;;;;;;5086170;28;20098;-60
2021/07/05 02:38:23;;;;;;;25.95;4.68;;;37.90;37.10;;;;;;5084020;28;20103;-59
2021/07/05 02:40:52;;;;;;;14.18;3.83;;;37.80;37.60;;;;;;5084214;28;20089;-61
2021/07/05 02:43:20;;;;;;;14.95;3.75;;;37.70;37.90;;;;;;5081849;28;20202;-58
2021/07/05 02:45:48;;;;;;;17.75;4.20;;;37.70;38.10;;;;;;5080110;28;20108;-60
2021/07/05 02:48:18;;;;;;;14.48;3.22;;;37.60;38.00;;;;;;5086073;28;20438;-58
2021/07/05 02:50:48;;;;;;;16.00;3.20;;;37.50;38.60;;;;;;5083086;28;20097;-62
2021/07/05 02:53:15;;;;;;;24.42;3.50;;;37.40;38.90;;;;;;5084746;28;20573;-58
2021/07/05 02:55:42;;;;;;;20.00;3.33;;;37.30;39.10;;;;;;5084561;28;20073;-59
2021/07/05 02:58:09;;;;;;;16.33;3.63;;;37.30;39.10;;;;;;5084387;28;20137;-61
2021/07/05 03:00:45;;;;;;;14.82;3.45;;;37.20;39.30;;;;;;5085954;28;20072;-60
2021/07/05 03:03:12;;;;;;;;;;;37.10;39.40;;;;;;5085007;28;20082;-59
2021/07/05 03:05:38;;;;;;;;;;;37.10;39.70;;;;;;5087103;28;19964;-59
2021/07/05 03:08:05;;;;;;;18.08;2.72;;;37.10;39.70;;;;;;5082777;28;20429;-60
2021/07/05 03:10:37;;;;;;;9.77;3.00;;;37.00;39.90;;;;;;5081827;28;20068;-60
2021/07/05 03:13:08;;;;;;;12.73;2.80;;;36.90;39.80;;;;;;5084047;28;20153;-58
2021/07/05 03:15:35;;;;;;;21.83;3.22;;;36.90;39.70;;;;;;5085444;28;20080;-60
2021/07/05 03:18:02;;;;;;;16.55;2.97;;;36.80;39.70;;;;;;5084232;28;20087;-59
2021/07/05 03:20:31;;;;;;;17.88;3.25;;;36.80;39.80;;;;;;5084186;28;20080;-59
2021/07/05 03:22:59;;;;;;;17.70;3.10;;;36.70;39.80;;;;;;5086861;28;20077;-56
2021/07/05 03:25:28;;;;;;;17.13;3.72;;;36.70;40.00;;;;;;5085249;28;20077;-60
2021/07/05 03:27:55;;;;;;;20.17;3.38;;;36.50;40.30;;;;;;5086884;28;20419;-61
2021/07/05 03:30:22;;;;;;;20.05;3.67;;;36.50;40.50;;;;;;5084034;28;20526;-60
2021/07/05 03:32:50;;;;;;;18.23;3.47;;;36.40;40.60;;;;;;5086099;28;21083;-60
2021/07/05 03:35:18;;;;;;;26.67;4.07;;;36.40;41.00;;;;;;5081835;28;20069;-60
2021/07/05 03:37:45;;;;;;;17.98;4.03;;;36.40;41.20;;;;;;5083028;28;20071;-59
2021/07/05 03:40:16;;;;;;;18.67;3.83;;;36.30;41.30;;;;;;5086819;28;20123;-58
2021/07/05 03:42:44;;;;;;;19.98;3.80;;;36.30;41.60;;;;;;5079867;28;20209;-59
2021/07/05 03:45:12;;;;;;;22.35;3.28;;;36.20;42.00;;;;;;5086389;28;20080;-58
2021/07/05 03:47:39;;;;;;;18.88;3.55;;;36.10;42.60;;;;;;5083547;28;20076;-58
2021/07/05 03:50:08;;;;;;;28.75;4.00;;;36.10;42.70;;;;;;5078532;28;20072;-59
2021/07/05 03:52:35;;;;;;;20.02;3.83;;;36.10;42.80;;;;;;5086380;28;20100;-61
2021/07/05 03:55:07;;;;;;;22.23;3.45;;;36.00;42.90;;;;;;5088776;28;20070;-60
2021/07/05 03:57:34;;;;;;;17.95;3.30;;;36.00;43.10;;;;;;5085416;28;20079;-60
2021/07/05 04:00:01;;;;;;;19.85;3.65;;;35.90;43.30;;;;;;5083704;28;20073;-61
2021/07/05 04:02:29;;;;;;;16.08;4.07;;;35.80;43.60;;;;;;5085548;28;20087;-60
2021/07/05 04:04:56;;;;;;;21.80;4.00;;;35.70;43.90;;;;;;5080183;28;20183;-61
2021/07/05 04:07:23;;;;;;;20.27;3.83;;;35.60;44.00;;;;;;5084680;28;20080;-60
2021/07/05 04:09:50;;;;;;;15.75;3.22;;;35.60;44.10;;;;;;5081271;28;20422;-59
2021/07/05 04:12:20;;;;;;;13.07;3.00;;;35.60;44.30;;;;;;5084817;28;20104;-57
2021/07/05 04:14:48;;;;;;;17.10;3.55;;;35.60;44.30;;;;;;5088877;28;20159;-60
2021/07/05 04:17:15;;;;;;;17.77;3.90;;;35.50;44.30;;;;;;5084218;28;20506;-60
2021/07/05 04:19:44;;;;;;;27.70;4.50;;;35.40;44.70;;;;;;5086634;28;20069;-60
2021/07/05 04:22:14;;;;;;;20.33;4.50;;;35.50;44.90;;;;;;5083517;28;20078;-59
2021/07/05 04:24:42;;;;;;;21.20;3.95;;;35.40;45.20;;;;;;5086296;28;20124;-58
2021/07/05 04:27:09;;;;;;;21.42;3.97;;;35.40;45.40;;;;;;5085480;28;20168;-59
2021/07/05 04:29:36;;;;;;;22.90;4.45;;;35.30;45.40;;;;;;5081808;28;20069;-58
2021/07/05 04:32:05;;;;;;;22.45;4.65;;;35.30;45.60;;;;;;5080259;28;20151;-60
2021/07/05 04:34:31;;;;;;;21.50;5.15;;;35.20;45.80;;;;;;5081679;28;20076;-60
2021/07/05 04:36:58;;;;;;;26.15;6.20;;;35.10;45.80;;;;;;5082482;28;20100;-60
2021/07/05 04:39:25;;;;;;;20.67;5.40;;;35.00;46.10;;;;;;5083275;28;20080;-61
2021/07/05 04:41:52;;;;;;;21.85;4.70;;;34.90;46.20;;;;;;5083078;28;20117;-62
2021/07/05 04:44:19;;;;;;;21.85;4.50;;;34.80;46.60;;;;;;5086068;28;20076;-60
2021/07/05 04:46:50;;;;;;;25.48;5.03;;;34.70;46.90;;;;;;5086607;28;20084;-60
2021/07/05 04:49:18;;;;;;;15.65;3.95;;;34.70;47.10;;;;;;5086875;28;20076;-59
2021/07/05 04:51:44;;;;;;;23.73;4.22;;;34.60;47.60;;;;;;5085877;28;20089;-60
2021/07/05 04:54:12;;;;;;;15.63;3.47;;;34.60;47.80;;;;;;5087675;28;20113;-61
2021/07/05 04:56:38;;;;;;;22.65;3.40;;;34.50;48.30;;;;;;5084985;28;20153;-62
2021/07/05 04:59:06;;;;;;;20.48;4.40;;;34.50;48.80;;;;;;5084299;28;20108;-61
2021/07/05 05:01:34;;;;;;;26.33;4.18;;;34.50;49.20;;;;;;5087294;28;20552;-62
2021/07/05 05:04:01;;;;;;;22.90;5.55;;;34.40;49.60;;;;;;5074076;28;20083;-60
2021/07/05 05:06:28;;;;;;;22.30;4.22;;;34.30;49.80;;;;;;5087225;28;20072;-58
2021/07/05 05:08:54;;;;;;;21.20;4.05;;;34.30;50.10;;;;;;5088036;28;20073;-60
2021/07/05 05:11:21;;;;;;;17.58;3.58;;;34.20;50.20;;;;;;5085620;28;20076;-59
2021/07/05 05:13:48;;;;;;;20.20;4.22;;;34.30;50.30;;;;;;5083149;28;20557;-60
2021/07/05 05:16:16;;;;;;;13.13;3.38;;;34.20;50.50;;;;;;5084622;28;20133;-60
2021/07/05 05:18:43;;;;;;;17.25;4.40;;;34.10;50.70;;;;;;5088345;28;20081;-58
2021/07/05 05:21:10;;;;;;;28.15;5.03;;;33.90;50.90;;;;;;5087318;28;20073;-61
2021/07/05 05:23:37;;;;;;;22.17;4.60;;;33.80;51.10;;;;;;5083033;28;20163;-58
2021/07/05 05:26:04;;;;;;;11.82;4.68;;;33.80;51.30;;;;;;5086290;28;20084;-61
2021/07/05 05:28:31;;;;;;;19.10;5.28;;;33.80;51.50;;;;;;5084031;28;20500;-62
2021/07/05 05:30:58;;;;;;;26.63;6.88;;;33.80;51.50;;;;;;5083322;28;20076;-58
2021/07/05 05:33:25;;;;;;;23.73;5.55;;;33.70;51.60;;;;;;5082816;28;20104;-60
2021/07/05 05:35:51;;;;;;;26.50;5.80;;;33.70;51.70;;;;;;5085563;28;20077;-60
2021/07/05 05:38:18;;;;;;;17.52;5.43;;;33.70;51.70;;;;;;5088420;28;20160;-59
2021/07/05 05:40:44;;;;;;;18.70;4.72;;;33.70;51.90;;;;;;5083161;28;20136;-62
2021/07/05 05:43:11;;;;;;;23.80;4.95;;;33.50;52.10;;;;;;5085660;28;20087;-60
2021/07/05 05:45:38;;;;;;;21.27;4.70;;;33.50;52.50;;;;;;5084969;28;20069;-62
2021/07/05 05:48:06;;;;;;;19.40;5.25;;;33.40;52.70;;;;;;5083837;28;20081;-60
2021/07/05 05:50:33;;;;;;;19.25;4.80;;;33.30;53.00;;;;;;5087444;28;20143;-61
2021/07/05 05:52:59;;;;;;;26.40;5.60;;;33.20;53.30;;;;;;5082730;28;20093;-59
2021/07/05 05:55:26;;;;;;;19.17;4.97;;;33.30;53.20;;;;;;5083881;28;20119;-60
2021/07/05 05:57:52;;;;;;;17.83;5.38;;;33.30;53.50;;;;;;5085894;28;20077;-61
2021/07/05 06:00:23;;;;;;;22.17;6.00;;;33.20;53.60;;;;;;5084052;28;20199;-61
2021/07/05 06:02:50;;;;;;;24.85;6.28;;;33.20;53.80;;;;;;5082993;28;20507;-59
2021/07/05 06:05:18;;;;;;;18.05;5.22;;;33.20;53.90;;;;;;5084935;28;20551;-58
2021/07/05 06:07:50;;;;;;;16.33;4.50;;;33.10;54.00;;;;;;5088726;28;20130;-60
2021/07/05 06:10:18;;;;;;;17.23;3.92;;;33.00;54.10;;;;;;5088535;28;20095;-62
2021/07/05 06:12:46;;;;;;;19.77;4.13;;;33.00;54.40;;;;;;5087269;28;20119;-61
2021/07/05 06:15:13;;;;;;;14.55;3.88;;;33.00;54.60;;;;;;5080404;28;20105;-59
2021/07/05 06:17:39;;;;;;;22.42;4.05;;;32.90;54.70;;;;;;5082440;28;20630;-59
2021/07/05 06:20:07;;;;;;;17.90;4.18;;;32.90;54.50;;;;;;5086454;28;20163;-59
2021/07/05 06:22:40;;;;;;;19.52;4.72;;;32.90;54.70;;;;;;5082855;28;20073;-58
2021/07/05 06:25:07;;;;;;;14.77;4.63;;;32.80;55.00;;;;;;5087103;28;20082;-59
2021/07/05 06:27:33;;;;;;;16.23;4.60;;;32.80;55.30;;;;;;5084912;28;20079;-59
2021/07/05 06:30:00;;;;;;;18.13;5.22;;;32.80;55.20;;;;;;5087127;28;20152;-59
2021/07/05 06:32:26;;;;;;;15.73;5.50;;;32.80;55.20;;;;;;5083298;28;21884;-60
2021/07/05 06:34:53;;;;;;;20.42;5.88;;;32.70;55.40;;;;;;5084449;28;20073;-60
2021/07/05 06:37:19;;;;;;;19.00;6.22;;;32.70;55.80;;;;;;5082936;28;20156;-60
2021/07/05 06:39:46;;;;;;;25.17;6.63;;;32.60;55.80;;;;;;5078793;28;20100;-55
2021/07/05 06:42:12;;;;;;;22.10;6.35;;;32.60;56.20;;;;;;5082719;28;20122;-58
2021/07/05 06:44:39;;;;;;;21.23;6.93;;;32.60;56.20;;;;;;5084411;28;20119;-59
2021/07/05 06:47:05;;;;;;;18.20;6.40;;;32.60;56.20;;;;;;5084876;28;20548;-60
2021/07/05 06:49:32;;;;;;;22.17;7.05;;;32.60;56.30;;;;;;5088654;28;20080;-59
2021/07/05 06:51:59;;;;;;;28.42;6.88;;;32.60;56.80;;;;;;5084247;28;20123;-59
2021/07/05 06:54:25;;;;;;;26.33;6.32;;;32.60;56.90;;;;;;5085831;28;20072;-61
2021/07/05 06:56:52;;;;;;;19.55;5.80;;;32.60;57.20;;;;;;5083024;28;20097;-60
2021/07/05 06:59:18;;;;;;;25.80;6.60;;;32.60;57.20;;;;;;5084826;28;20203;-61
2021/07/05 07:01:45;;;;;;;25.15;5.60;;;32.60;57.10;;;;;;5087076;28;20083;-59
2021/07/05 07:04:12;;;;;;;21.27;5.35;;;32.60;57.20;;;;;;5088960;28;20097;-61
2021/07/05 07:06:38;;;;;;;24.98;5.60;;;32.60;57.40;;;;;;5082750;28;20068;-58
2021/07/05 07:09:05;;;;;;;24.70;5.57;;;32.50;57.50;;;;;;5085095;28;20077;-60
2021/07/05 07:11:32;;;;;;;24.63;4.63;;;32.50;57.80;;;;;;5083869;28;20526;-58
2021/07/05 07:13:58;;;;;;;18.08;4.78;;;32.40;58.00;;;;;;5084647;28;20089;-59
2021/07/05 07:16:28;;;;;;;16.80;4.88;;;32.50;58.60;;;;;;5084724;28;20522;-61
2021/07/05 07:21:46;;;;;;;16.13;4.55;;;32.50;58.30;;;;;;5085839;28;20161;-57
2021/07/05 07:24:14;;;;;;;16.50;4.30;;;32.40;58.40;;;;;;5085894;28;20072;-59
2021/07/05 07:26:41;;;;;;;21.67;4.55;;;32.30;59.00;;;;;;5085857;28;20116;-58
2021/07/05 07:29:08;;;;;;;17.15;5.07;;;32.20;59.00;;;;;;5083492;28;20478;-59
2021/07/05 07:31:35;;;;;;;22.58;4.75;;;32.20;59.10;;;;;;5087450;28;20101;-59
2021/07/05 07:34:03;;;;;;;22.45;5.40;;;32.30;59.50;;;;;;5082436;28;20088;-58
2021/07/05 07:36:29;;;;;;;21.17;4.68;;;32.20;59.40;;;;;;5085931;28;20080;-58
2021/07/05 07:39:08;;;;;;;21.45;5.03;;;32.20;59.20;;;;;;5079526;28;20154;-59
2021/07/05 07:41:35;;;;;;;18.98;4.38;;;32.20;59.50;;;;;;5080708;28;20105;-58
2021/07/05 07:44:03;;;;;;;18.67;5.00;;;32.10;59.60;;;;;;5081200;28;20081;-60
2021/07/05 07:46:30;;;;;;;16.58;4.80;;;32.10;60.60;;;;;;5084528;28;20589;-60
2021/07/05 07:48:57;;;;;;;21.63;5.50;;;32.00;59.90;;;;;;5084684;28;20107;-59
2021/07/05 07:51:25;;;;;;;22.08;5.78;;;32.00;60.50;;;;;;5082731;28;20073;-59
2021/07/05 07:53:52;;;;;;;16.90;5.25;;;32.00;60.80;;;;;;5082327;28;20129;-59
2021/07/05 07:56:18;;;;;;;17.45;6.00;;;31.90;60.70;;;;;;5083145;28;20069;-58
2021/07/05 07:58:45;;;;;;;18.95;6.30;;;31.90;60.30;;;;;;5085854;28;20168;-60
2021/07/05 08:01:12;;;;;;;20.95;6.78;;;31.90;61.00;;;;;;5083451;28;20069;-58
2021/07/05 08:03:38;;;;;;;20.65;6.53;;;31.90;61.20;;;;;;5084322;28;20079;-59
2021/07/05 08:06:05;;;;;;;19.70;7.00;;;31.90;60.90;;;;;;5081105;28;20171;-59
2021/07/05 08:08:32;;;;;;;20.90;6.88;;;31.90;60.90;;;;;;5084255;28;20123;-58
2021/07/05 08:10:58;;;;;;;27.65;7.35;;;31.90;60.70;;;;;;5080968;28;20069;-59
2021/07/05 08:13:25;;;;;;;25.38;7.00;;;31.80;61.80;;;;;;5078669;28;20115;-60
2021/07/05 08:15:52;;;;;;;21.52;6.82;;;31.80;61.70;;;;;;5084020;28;20542;-59
2021/07/05 08:18:20;;;;;;;25.75;6.60;;;31.80;62.10;;;;;;5084295;28;20163;-59
2021/07/05 08:20:48;;;;;;;19.23;6.00;;;31.90;62.20;;;;;;5081258;28;20082;-60
2021/07/05 08:23:14;;;;;;;20.85;6.28;;;31.80;63.10;;;;;;5081625;28;20087;-60
2021/07/05 08:25:41;;;;;;;30.85;6.55;;;31.80;63.30;;;;;;5081667;28;20437;-58
2021/07/05 08:28:08;;;;;;;20.88;5.50;;;31.70;64.00;;;;;;5080278;28;20107;-57
2021/07/05 08:30:35;;;;;;;18.90;5.05;;;31.70;63.80;;;;;;5081470;28;20072;-60
2021/07/05 08:33:02;;;;;;;14.98;4.45;;;31.50;64.30;;;;;;5081501;28;20093;-60
2021/07/05 08:35:29;;;;;;;14.68;4.18;;;31.50;66.50;;;;;;5083514;28;20072;-59
2021/07/05 08:37:56;;;;;;;14.20;3.53;;;31.40;66.80;;;;;;5083447;28;20077;-58
2021/07/05 08:40:23;;;;;;;14.95;3.45;;;31.30;68.10;;;;;;5085822;28;20095;-60
2021/07/05 08:42:50;;;;;;;13.10;3.33;;;31.30;68.90;;;;;;5083076;28;20116;-58
2021/07/05 08:45:17;;;;;;;12.15;3.20;;;31.30;68.90;;;;;;5079308;28;20156;-59
2021/07/05 08:47:50;;;;;;;17.80;3.47;;;31.30;69.60;;;;;;5083521;28;20104;-59
2021/07/05 08:50:18;;;;;;;14.73;3.40;;;31.20;69.70;;;;;;5079689;28;20122;-59
2021/07/05 08:52:45;;;;;;;16.38;3.67;;;31.20;70.00;;;;;;5083016;28;20101;-60
2021/07/05 08:55:21;;;;;;;20.77;3.95;;;31.20;70.80;;;;;;5081439;28;20076;-60
2021/07/05 08:57:48;;;;;;;14.85;4.00;;;31.10;71.00;;;;;;5084227;28;20087;-57
2021/07/05 09:00:19;;;;;;;17.52;3.85;;;31.10;71.40;;;;;;5081532;28;20593;-60
2021/07/05 09:02:46;;;;;;;25.25;4.75;;;31.10;71.50;;;;;;5085022;28;20138;-57
2021/07/05 09:05:13;;;;;;;23.13;4.32;;;31.00;71.60;;;;;;5082580;28;20069;-58
2021/07/05 09:08:08;;;;;;;18.45;4.47;;;31.00;71.80;;;;;;5080571;28;20077;-58
2021/07/05 09:10:48;;;;;;;20.90;5.05;;;31.00;72.00;;;;;;5079362;28;20754;-59
2021/07/05 09:13:26;;;;;;;19.70;4.63;;;31.00;72.60;;;;;;5084309;28;20123;-59
2021/07/05 09:15:55;;;;;;;17.92;4.90;;;31.00;72.80;;;;;;5083335;28;20526;-59
2021/07/05 09:18:30;;;;;;;23.48;4.90;;;30.90;72.60;;;;;;5082144;28;20163;-59
2021/07/05 09:21:08;;;;;;;18.70;4.57;;;30.90;73.70;;;;;;5084371;28;20163;-60
2021/07/05 09:23:35;;;;;;;18.60;4.60;;;30.80;73.60;;;;;;5082439;28;20073;-59
2021/07/05 09:26:03;;;;;;;18.98;4.00;;;30.70;74.50;;;;;;5084690;28;20080;-59
2021/07/05 09:28:38;;;;;;;15.13;4.30;;;30.60;74.90;;;;;;5078199;28;20126;-58
2021/07/05 09:31:05;;;;;;;21.40;4.93;;;30.60;75.40;;;;;;5080624;28;20105;-57
2021/07/05 09:33:31;;;;;;;13.52;4.72;;;30.60;75.40;;;;;;5085032;28;20089;-58
2021/07/05 09:36:03;;;;;;;19.52;5.65;;;30.50;75.70;;;;;;5087405;28;20126;-55
2021/07/05 09:38:34;;;;;;;12.32;4.97;;;30.50;76.50;;;;;;5086675;28;20083;-58
2021/07/05 09:41:22;;;;;;;17.65;4.93;;;30.50;76.20;;;;;;5083709;28;20184;-58
2021/07/05 09:43:55;;;;;;;21.60;5.25;;;30.50;76.40;;;;;;5087962;28;20557;-60
2021/07/05 09:46:37;;;;;;;19.67;5.55;;;30.50;76.30;;;;;;5084581;28;20068;-57
2021/07/05 09:49:12;;;;;;;18.98;5.03;;;30.40;76.70;;;;;;5080368;28;20080;-58
2021/07/05 09:51:41;;;;;;;19.77;5.20;;;30.40;77.70;;;;;;5086446;28;20091;-57
2021/07/05 09:54:08;;;;;;;19.88;4.53;;;30.30;77.50;;;;;;5085784;28;20081;-57
2021/07/05 09:56:35;;;;;;;15.57;4.38;;;30.30;78.50;;;;;;5081431;28;20088;-56
2021/07/05 09:59:17;;;;;;;18.00;5.15;;;30.20;79.00;;;;;;5087844;28;20150;-55
2021/07/05 10:01:48;;;;;;;21.80;5.05;;;30.20;80.10;;;;;;5087825;28;20125;-60
2021/07/05 10:04:31;;;;;;;16.77;4.60;;;30.10;80.90;;;;;;5087776;28;20065;-57
2021/07/05 10:07:04;;;;;;;21.65;5.18;;;30.10;81.90;;;;;;5086099;28;20073;-57
2021/07/05 10:09:37;;;;;;;18.98;5.20;;;30.10;82.70;;;;;;5086013;28;20085;-59
2021/07/05 10:12:21;;;;;;;21.10;6.00;;;30.10;82.70;;;;;;5087541;28;20088;-56
2021/07/05 10:14:54;;;;;;;19.70;5.00;;;30.10;83.70;;;;;;5087045;28;20080;-60
2021/07/05 10:17:22;;;;;;;17.25;4.40;;;30.00;83.50;;;;;;5085042;28;20142;-58
2021/07/05 10:19:49;;;;;;;18.42;4.50;;;29.90;84.60;;;;;;5089229;28;20114;-58
2021/07/05 10:22:17;;;;;;;21.20;4.15;;;29.80;85.30;;;;;;5082265;28;20098;-58
2021/07/05 10:24:45;;;;;;;18.48;4.78;;;29.70;85.50;;;;;;5083106;28;20553;-58
2021/07/05 10:27:13;;;;;;;14.43;4.80;;;29.70;85.80;;;;;;5085375;28;20126;-59
2021/07/05 10:29:42;;;;;;;19.15;5.28;;;29.70;85.80;;;;;;5088567;28;20579;-58
2021/07/05 10:32:10;;;;;;;17.73;4.65;;;29.70;86.40;;;;;;5087078;28;20085;-59
2021/07/05 10:34:38;;;;;;;18.02;4.53;;;29.70;87.00;;;;;;5087171;28;20079;-58
2021/07/05 10:37:09;;;;;;;21.60;4.55;;;29.60;87.80;;;;;;5088152;28;20091;-59
2021/07/05 10:39:37;;;;;;;24.58;4.82;;;29.60;88.20;;;;;;5086488;28;20073;-58
2021/07/05 10:42:23;;;;;;;19.10;4.93;;;29.70;88.30;;;;;;5085574;28;20148;-59
2021/07/05 10:44:49;;;;;;;17.83;4.70;;;29.70;88.80;;;;;;5083682;28;20080;-58
2021/07/05 10:47:43;;;;;;;19.15;4.60;;;29.70;89.50;;;;;;5083682;28;20403;-60
2021/07/05 10:50:30;;;;;;;13.68;4.00;;;29.60;90.40;;;;;;5081428;28;20081;-56
2021/07/05 10:52:56;;;;;;;12.57;4.50;;;29.60;90.50;;;;;;5085573;28;20592;-56
2021/07/05 10:55:45;;;;;;;19.05;4.82;;;29.50;91.00;;;;;;5083325;28;20089;-57
2021/07/05 10:58:32;;;;;;;19.00;5.18;;;29.50;91.30;;;;;;5080887;28;20080;-55
2021/07/05 11:01:07;;;;;;;21.38;5.05;;;29.40;91.70;;;;;;5082855;28;20077;-57
2021/07/05 11:03:40;;;;;;;23.85;5.50;;;29.30;92.00;;;;;;5083862;28;20076;-56
2021/07/05 11:06:22;;;;;;;22.50;4.88;;;29.30;92.30;;;;;;5081360;28;20123;-59
2021/07/05 11:08:51;;;;;;;21.25;4.88;;;29.30;91.90;;;;;;5079936;28;20069;-58
2021/07/05 11:11:25;;;;;;;19.60;4.97;;;29.30;92.00;;;;;;5085701;28;20421;-58
2021/07/05 11:14:21;;;;;;;21.50;4.90;;;29.20;92.20;;;;;;5086350;28;20534;-59
2021/07/05 11:17:03;;;;;;;21.63;4.97;;;29.20;91.70;;;;;;5085853;28;20088;-60
2021/07/05 11:19:53;;;;;;;15.38;4.53;;;29.10;91.90;;;;;;5086279;28;20077;-57
2021/07/05 11:22:30;;;;;;;21.73;5.07;;;29.10;92.50;;;;;;5079496;28;20085;-59
2021/07/05 11:24:59;;;;;;;;;;;29.10;92.60;;;;;;5085406;28;20068;-60
2021/07/05 11:27:47;;;;;;;21.83;5.88;;;29.10;92.80;;;;;;5080577;28;19964;-58
2021/07/05 11:30:16;;;;;;;13.25;4.55;;;29.10;93.10;;;;;;5086050;28;20065;-60
2021/07/05 11:32:46;;;;;;;15.15;4.80;;;29.10;93.10;;;;;;5083988;28;20134;-58
2021/07/05 11:35:28;;;;;;;17.75;4.88;;;29.00;93.50;;;;;;5082626;28;20083;-60
2021/07/05 11:37:57;;;;;;;20.65;5.10;;;29.10;93.70;;;;;;5083976;28;20081;-59
2021/07/05 11:40:47;;;;;;;23.48;5.55;;;29.00;94.00;;;;;;5079901;28;20065;-58
2021/07/05 11:43:16;;;;;;;18.65;6.07;;;29.00;94.20;;;;;;5083890;28;20108;-60
2021/07/05 11:45:51;;;;;;;20.52;5.22;;;29.00;94.40;;;;;;5082901;28;20167;-59
2021/07/05 11:48:40;;;;;;;17.63;5.40;;;29.00;94.30;;;;;;5082638;28;20436;-60
2021/07/05 11:51:29;;;;;;;24.27;5.93;;;29.00;94.50;;;;;;5082184;28;20080;-59
2021/07/05 11:53:55;;;;;;;22.20;6.13;;;29.00;94.70;;;;;;5080975;28;20101;-59
2021/07/05 11:56:33;;;;;;;20.52;5.25;;;29.00;94.90;;;;;;5083452;28;20084;-59
2021/07/05 11:59:01;;;;;;;18.98;5.45;;;29.00;95.20;;;;;;5083101;28;20084;-60
2021/07/05 12:01:29;;;;;;;21.48;5.82;;;28.90;95.40;;;;;;5085244;28;20429;-59
2021/07/05 12:03:58;;;;;;;19.23;5.18;;;29.00;95.80;;;;;;5083843;28;20436;-57
2021/07/05 12:06:25;;;;;;;19.77;5.65;;;29.00;95.90;;;;;;5083239;28;20214;-58
2021/07/05 12:08:58;;;;;;;17.67;4.65;;;29.00;96.20;;;;;;5083696;28;20069;-60
2021/07/05 12:11:31;;;;;;;23.40;5.65;;;29.00;96.40;;;;;;5083421;28;20092;-60
2021/07/05 12:14:11;;;;;;;21.20;5.90;;;29.00;96.60;;;;;;5084694;28;20105;-58
2021/07/05 12:16:41;;;;;;;21.65;4.65;;;29.00;96.80;;;;;;5083152;28;20085;-60
2021/07/05 12:19:10;;;;;;;22.83;6.18;;;29.00;96.90;;;;;;5084507;28;20080;-57
2021/07/05 12:21:42;;;;;;;24.83;6.88;;;29.00;97.00;;;;;;5081282;28;20413;-58
2021/07/05 12:24:19;;;;;;;26.73;7.82;;;29.00;96.80;;;;;;5081800;28;20073;-57
2021/07/05 12:26:50;;;;;;;26.73;7.20;;;29.00;96.70;;;;;;5078818;28;20107;-57
2021/07/05 12:29:24;;;;;;;31.33;8.15;;;28.90;96.70;;;;;;5080509;28;20075;-57
2021/07/05 12:31:57;;;;;;;24.70;8.60;;;28.90;96.80;;;;;;5083925;28;20067;-59
2021/07/05 12:34:43;;;;;;;30.00;10.20;;;28.90;96.80;;;;;;5081255;28;20104;-58
2021/07/05 12:37:28;;;;;;;27.88;9.25;;;29.00;96.70;;;;;;5083908;28;20076;-58
2021/07/05 12:40:20;;;;;;;28.75;10.20;;;29.00;96.50;;;;;;5083891;28;20077;-59
2021/07/05 12:42:50;;;;;;;31.13;11.27;;;28.90;96.40;;;;;;5081039;28;20698;-59
2021/07/05 12:45:24;;;;;;;33.10;11.70;;;28.90;96.90;;;;;;5086629;28;20077;-59
2021/07/05 12:48:29;;;;;;;46.08;13.95;;;28.80;97.00;;;;;;5081409;28;20525;-58
2021/07/05 12:51:00;;;;;;;57.53;21.67;;;28.70;97.20;;;;;;5080061;28;20087;-58
2021/07/05 12:53:37;;;;;;;73.90;29.08;;;28.60;97.30;;;;;;5082412;28;20158;-56